Time;durP1;ratioP1;P1;durP2;ratioP2;P2;SDS_P1;SDS_P2;PMS_P1;PMS_P2;Temp;Humidity;BMP_temperature;BMP_pressure;BME280_temperature;BME280_humidity;BME280_pressure;Samples;Min_cycle;Max_cycle;Signal;HPM_P1;HPM_P2
2023/08/21 05:39:26;;;;;;;;;5.00;5.00;;;;;23.56;56.08;102085.31;5097574;27;45490;-72
2023/08/21 05:41:52;;;;;;;;;4.67;3.00;;;;;23.66;55.77;102085.34;5089072;27;45658;-72
2023/08/21 05:44:17;;;;;;;;;4.00;4.00;;;;;23.87;55.58;102087.13;5086296;27;45571;-72
2023/08/21 05:46:43;;;;;;;;;3.33;3.33;;;;;24.09;55.61;102086.06;5111317;27;45585;-70
2023/08/21 05:49:08;;;;;;;;;5.67;5.00;;;;;24.35;55.04;102085.53;5095692;27;46002;-73
2023/08/21 05:51:34;;;;;;;;;4.00;4.00;;;;;24.64;53.85;102087.38;5080980;27;45370;-73
2023/08/21 05:53:59;;;;;;;;;6.00;4.00;;;;;24.90;53.46;102083.25;5082400;27;45331;-74
2023/08/21 05:56:24;;;;;;;;;4.67;4.67;;;;;25.22;52.07;102090.19;5082368;27;45577;-73
2023/08/21 05:58:49;;;;;;;;;3.67;3.67;;;;;25.46;52.10;102089.66;5075363;27;46821;-73
2023/08/21 06:01:15;;;;;;;;;9.67;5.67;;;;;25.69;51.70;102092.03;5086986;27;59574;-74
2023/08/21 06:03:40;;;;;;;;;4.00;3.00;;;;;25.92;51.20;102094.38;5088043;27;45614;-73
2023/08/21 06:06:05;;;;;;;;;3.33;3.33;;;;;26.12;50.01;102097.78;5088594;27;45646;-74
2023/08/21 06:08:31;;;;;;;;;4.00;4.00;;;;;26.29;49.96;102100.72;5088816;27;45976;-75
2023/08/21 06:10:56;;;;;;;;;3.00;2.00;;;;;26.46;50.40;102098.16;5082318;27;45535;-75
2023/08/21 06:13:22;;;;;;;;;4.00;4.00;;;;;26.60;49.23;102094.06;5087634;27;46034;-74
2023/08/21 06:15:47;;;;;;;;;4.00;3.00;;;;;26.74;48.51;102098.06;5087316;27;45580;-73
2023/08/21 06:18:14;;;;;;;;;2.00;0.00;;;;;26.89;48.97;102096.47;5078912;27;45529;-73
2023/08/21 06:20:42;;;;;;;;;4.00;2.33;;;;;27.03;48.77;102088.78;5088167;27;45739;-70
2023/08/21 06:23:08;;;;;;;;;5.67;4.33;;;;;27.19;48.30;102097.06;5085431;27;45613;-71
2023/08/21 06:25:33;;;;;;;;;5.00;4.00;;;;;27.32;48.68;102106.69;5081042;27;45789;-71
2023/08/21 06:27:58;;;;;;;;;3.00;3.00;;;;;27.45;47.89;102108.94;5087235;27;45499;-72
2023/08/21 06:30:24;;;;;;;;;3.00;3.00;;;;;27.54;47.60;102098.97;5075064;27;45504;-72
2023/08/21 06:32:49;;;;;;;;;5.00;2.00;;;;;27.63;47.73;102100.75;5085747;27;45725;-69
2023/08/21 06:35:15;;;;;;;;;2.00;2.00;;;;;27.72;47.48;102113.38;5081686;27;51712;-70
2023/08/21 06:37:40;;;;;;;;;2.00;2.00;;;;;27.81;46.69;102111.53;5085073;27;46218;-71
2023/08/21 06:40:06;;;;;;;;;1.00;1.00;;;;;27.87;46.99;102108.16;5088997;27;45808;-70
2023/08/21 06:42:32;;;;;;;;;1.00;1.00;;;;;27.94;46.06;102107.47;5087777;27;45462;-70
2023/08/21 06:44:57;;;;;;;;;3.33;3.33;;;;;27.99;45.51;102107.84;5085136;27;45728;-71
2023/08/21 06:47:22;;;;;;;;;2.67;1.33;;;;;28.05;46.29;102115.38;5086386;27;45496;-71
2023/08/21 06:49:48;;;;;;;;;2.00;2.00;;;;;28.11;45.45;102111.09;5065499;27;56066;-70
2023/08/21 06:52:13;;;;;;;;;1.33;1.33;;;;;28.14;45.84;102106.19;5069646;27;45885;-71
2023/08/21 06:54:38;;;;;;;;;1.00;1.00;;;;;28.19;46.19;102107.56;5072264;28;45901;-71
2023/08/21 06:57:04;;;;;;;;;1.00;1.00;;;;;28.24;45.67;102106.06;5071307;27;55587;-71
2023/08/21 06:59:29;;;;;;;;;2.00;2.00;;;;;28.28;45.47;102114.75;5075778;28;45447;-70
2023/08/21 07:01:55;;;;;;;;;1.00;1.00;;;;;28.30;45.00;102110.00;5074054;27;45443;-71
2023/08/21 07:04:20;;;;;;;;;1.33;1.33;;;;;28.32;45.29;102113.41;5071746;28;45481;-71
2023/08/21 07:06:45;;;;;;;;;2.00;2.00;;;;;28.38;44.87;102114.63;5070320;27;45493;-71
2023/08/21 07:09:11;;;;;;;;;2.00;1.00;;;;;28.41;44.68;102119.75;5067815;28;45490;-71
2023/08/21 07:11:36;;;;;;;;;1.33;1.33;;;;;28.46;44.77;102119.22;5068501;27;45589;-71
2023/08/21 07:14:01;;;;;;;;;1.00;1.00;;;;;28.47;44.80;102113.59;5074955;28;50960;-72
2023/08/21 07:16:26;;;;;;;;;1.00;0.67;;;;;28.50;44.73;102123.34;5068730;27;45911;-71
2023/08/21 07:18:52;;;;;;;;;0.33;0.33;;;;;28.51;44.52;102123.16;5063027;27;46401;-71
2023/08/21 07:21:17;;;;;;;;;1.00;1.00;;;;;28.56;44.19;102116.34;5073195;28;45623;-71
2023/08/21 07:23:42;;;;;;;;;0.00;0.00;;;;;28.59;44.35;102121.44;5072814;28;45447;-71
2023/08/21 07:26:08;;;;;;;;;1.33;1.00;;;;;28.59;44.21;102121.44;5072094;28;52732;-71
2023/08/21 07:28:33;;;;;;;;;0.00;0.00;;;;;28.61;44.27;102114.78;5071535;27;45738;-71
2023/08/21 07:31:00;;;;;;;;;1.00;1.00;;;;;28.61;44.29;102128.44;5071289;28;45402;-71
2023/08/21 07:33:27;;;;;;;;;1.00;1.00;;;;;28.63;43.97;102131.88;5073914;27;45797;-71
2023/08/21 07:36:03;;;;;;;;;0.67;0.67;;;;;28.63;44.37;102114.63;5062032;27;46234;-71
2023/08/21 07:38:29;;;;;;;;;3.67;2.67;;;;;28.63;43.40;102117.34;5063575;27;45657;-74
2023/08/21 07:41:04;;;;;;;;;1.00;1.00;;;;;28.66;43.03;102120.59;5060776;27;45529;-74
2023/08/21 07:43:30;;;;;;;;;2.00;2.00;;;;;28.67;42.89;102127.78;5068702;27;46269;-74
2023/08/21 07:45:55;;;;;;;;;1.00;1.00;;;;;28.65;42.71;102123.53;5072472;28;46416;-73
2023/08/21 07:48:20;;;;;;;;;1.33;1.33;;;;;28.61;42.49;102124.88;5074806;27;45434;-73
2023/08/21 07:50:55;;;;;;;;;1.00;1.00;;;;;28.58;42.47;102120.63;5077047;27;47081;-73
2023/08/21 07:53:20;;;;;;;;;0.67;0.67;;;;;28.57;42.20;102121.63;5075359;28;45410;-73
2023/08/21 07:55:46;;;;;;;;;2.33;1.00;;;;;28.54;42.56;102121.97;5072251;27;45625;-73
2023/08/21 07:58:11;;;;;;;;;2.00;0.67;;;;;28.55;42.93;102123.69;5074242;28;45736;-73
2023/08/21 08:00:38;;;;;;;;;1.00;1.00;;;;;28.53;42.94;102121.09;5067940;28;45723;-72
2023/08/21 08:03:05;;;;;;;;;1.00;1.00;;;;;28.54;42.93;102122.81;5074519;27;45442;-72
2023/08/21 08:05:31;;;;;;;;;2.67;1.00;;;;;28.57;42.56;102126.25;5074904;27;46182;-72
2023/08/21 08:07:56;;;;;;;;;1.33;1.33;;;;;28.58;42.65;102125.22;5073360;28;45536;-73
2023/08/21 08:10:21;;;;;;;;;1.33;1.33;;;;;28.59;42.49;102129.66;5073202;27;45342;-72
2023/08/21 08:12:47;;;;;;;;;4.00;2.33;;;;;28.59;42.73;102124.19;5058725;27;45481;-76
2023/08/21 08:15:12;;;;;;;;;1.00;1.00;;;;;28.61;42.88;102130.34;5065532;28;45468;-72
2023/08/21 08:17:37;;;;;;;;;1.33;1.33;;;;;28.61;42.24;102133.06;5071542;28;45409;-72
2023/08/21 08:20:06;;;;;;;;;1.00;1.00;;;;;28.61;42.49;102133.91;5070061;28;50504;-72
2023/08/21 08:22:31;;;;;;;;;2.33;1.00;;;;;28.62;42.18;102132.91;5063257;28;45843;-72
2023/08/21 08:24:57;;;;;;;;;3.67;1.00;;;;;28.63;42.36;102122.81;5073358;28;45372;-72
2023/08/21 08:27:22;;;;;;;;;2.00;2.00;;;;;28.63;42.40;102123.69;5072618;27;45489;-72
2023/08/21 08:29:47;;;;;;;;;1.00;1.00;;;;;28.65;41.95;102131.72;5073029;28;45748;-72
2023/08/21 08:32:12;;;;;;;;;2.67;2.00;;;;;28.65;41.98;102129.81;5073322;28;54026;-73
2023/08/21 08:34:38;;;;;;;;;2.00;2.00;;;;;28.66;42.37;102136.16;5072442;27;58336;-73
2023/08/21 08:37:03;;;;;;;;;3.67;0.67;;;;;28.65;42.02;102139.91;5072908;27;45419;-75
2023/08/21 08:39:29;;;;;;;;;3.00;1.00;;;;;28.65;42.34;102134.44;5065072;27;45387;-75
2023/08/21 08:42:01;;;;;;;;;1.00;1.00;;;;;28.66;41.84;102128.78;5060119;28;45642;-73
2023/08/21 08:44:27;;;;;;;;;2.00;2.00;;;;;28.71;42.06;102130.16;5072168;28;46073;-73
2023/08/21 08:46:53;;;;;;;;;1.00;1.00;;;;;28.72;42.11;102124.53;5073139;28;45493;-73
2023/08/21 08:49:19;;;;;;;;;2.00;2.00;;;;;28.75;41.93;102128.81;5072767;27;45433;-73
2023/08/21 08:51:46;;;;;;;;;2.67;1.00;;;;;28.75;42.31;102121.47;5064167;28;45499;-74
2023/08/21 08:54:12;;;;;;;;;1.00;1.00;;;;;28.79;42.12;102121.97;5067724;28;45616;-74
2023/08/21 08:56:38;;;;;;;;;2.00;1.00;;;;;28.81;42.65;102117.19;5067605;27;45360;-74
2023/08/21 08:59:06;;;;;;;;;1.00;1.00;;;;;28.83;41.92;102114.28;5071234;28;45571;-75
2023/08/21 09:01:31;;;;;;;;;2.67;2.00;;;;;28.84;42.08;102116.84;5070014;27;45551;-75
2023/08/21 09:03:56;;;;;;;;;1.33;1.33;;;;;28.88;41.89;102118.25;5070946;27;45655;-74
2023/08/21 09:06:22;;;;;;;;;3.67;3.00;;;;;28.92;41.87;102118.75;5068719;27;46730;-73
2023/08/21 09:08:55;;;;;;;;;2.67;1.00;;;;;28.96;42.00;102114.66;5071212;27;45590;-72
2023/08/21 09:11:20;;;;;;;;;2.00;1.33;;;;;29.00;42.45;102116.00;5071247;28;45410;-73
2023/08/21 09:13:50;;;;;;;;;3.67;2.00;;;;;29.02;41.65;102113.94;5069089;28;45580;-74
2023/08/21 09:16:17;;;;;;;;;2.67;2.00;;;;;29.06;41.60;102103.53;5072045;28;45345;-74
2023/08/21 09:18:50;;;;;;;;;3.00;2.00;;;;;29.09;42.53;102100.44;5072064;27;45913;-73
2023/08/21 09:21:17;;;;;;;;;2.33;1.67;;;;;29.09;41.60;102099.59;5066438;28;45764;-77
2023/08/21 09:23:42;;;;;;;;;2.33;2.33;;;;;29.12;41.62;102105.56;5064689;27;46276;-76
2023/08/21 09:26:08;;;;;;;;;2.00;2.00;;;;;29.14;41.21;102095.31;5071694;27;45406;-75
2023/08/21 09:28:34;;;;;;;;;3.00;1.00;;;;;29.17;41.13;102099.56;5065715;28;49192;-76
2023/08/21 09:31:00;;;;;;;;;2.67;1.67;;;;;29.19;41.33;102098.38;5063692;28;45426;-75
2023/08/21 09:33:25;;;;;;;;;2.67;2.67;;;;;29.19;41.33;102097.53;5064612;27;61089;-75
2023/08/21 09:35:52;;;;;;;;;1.00;1.00;;;;;29.22;41.47;102093.59;5066362;28;45635;-76
2023/08/21 09:38:19;;;;;;;;;4.00;2.00;;;;;29.24;41.24;102091.53;5066307;28;45605;-75
2023/08/21 09:40:51;;;;;;;;;3.00;3.00;;;;;29.26;41.03;102086.75;5065489;28;45565;-76
2023/08/21 09:43:16;;;;;;;;;3.00;2.33;;;;;29.29;40.90;102086.38;5070791;28;45400;-75
2023/08/21 09:45:46;;;;;;;;;1.67;1.67;;;;;29.31;41.15;102084.34;5070064;28;45419;-77
2023/08/21 09:48:13;;;;;;;;;3.00;3.00;;;;;29.30;41.40;102086.22;5071407;27;45472;-73
2023/08/21 09:50:40;;;;;;;;;2.00;2.00;;;;;29.35;40.72;102085.69;5069817;27;45940;-74
2023/08/21 09:53:06;;;;;;;;;3.33;2.67;;;;;29.34;41.46;102083.97;5064070;27;45604;-75
2023/08/21 09:55:32;;;;;;;;;2.67;1.67;;;;;29.35;41.28;102085.69;5063685;28;45538;-76
2023/08/21 09:58:02;;;;;;;;;4.00;2.33;;;;;29.38;41.52;102084.50;5054952;28;45458;-73
2023/08/21 10:00:32;;;;;;;;;5.67;5.00;;;;;29.40;41.33;102091.50;5068161;27;45450;-74
2023/08/21 10:03:07;;;;;;;;;5.33;4.00;;;;;29.43;41.50;102087.56;5071569;27;45908;-73
2023/08/21 10:05:34;;;;;;;;;2.67;2.33;;;;;29.44;41.51;102083.78;5069849;28;45522;-73
2023/08/21 10:08:04;;;;;;;;;2.33;2.33;;;;;29.46;41.36;102084.44;5061949;28;45608;-74
2023/08/21 10:10:32;;;;;;;;;3.67;2.33;;;;;29.48;41.50;102082.41;5068936;28;45436;-77
2023/08/21 10:12:59;;;;;;;;;3.33;2.00;;;;;29.49;41.34;102084.09;5066125;27;45623;-75
2023/08/21 10:15:25;;;;;;;;;4.00;2.67;;;;;29.50;41.14;102079.50;5061403;28;45598;-75
2023/08/21 10:17:55;;;;;;;;;4.33;3.00;;;;;29.51;41.80;102079.31;5059403;28;47072;-76
2023/08/21 10:20:23;;;;;;;;;3.00;3.00;;;;;29.54;41.64;102078.13;5059846;28;45665;-76
2023/08/21 10:22:51;;;;;;;;;4.00;4.00;;;;;29.55;41.40;102066.16;5067489;28;47283;-75
2023/08/21 10:25:21;;;;;;;;;4.67;3.00;;;;;29.57;41.23;102066.84;5066697;27;45359;-75
2023/08/21 10:27:50;;;;;;;;;3.00;3.00;;;;;29.59;41.32;102070.25;5073740;27;45498;-75
2023/08/21 10:30:24;;;;;;;;;3.67;3.00;;;;;29.62;41.51;102058.09;5071498;27;45513;-75
2023/08/21 10:32:52;;;;;;;;;2.67;2.67;;;;;29.62;41.44;102048.00;5074115;27;45486;-74
2023/08/21 10:35:20;;;;;;;;;5.33;3.00;;;;;29.64;41.30;102056.03;5071891;27;45559;-75
2023/08/21 10:38:12;;;;;;;;;2.67;2.67;;;;;29.64;41.94;102056.91;5071838;27;45630;-74
2023/08/21 10:40:41;;;;;;;;;2.33;2.33;;;;;29.65;41.63;102055.00;5070604;27;45510;-72
2023/08/21 10:43:41;;;;;;;;;4.33;4.00;;;;;29.67;42.32;102056.53;5067559;27;45488;-72
2023/08/21 10:46:08;;;;;;;;;4.00;4.00;;;;;29.68;42.43;102044.53;5072844;27;45461;-73
2023/08/21 10:48:34;;;;;;;;;6.00;4.67;;;;;29.70;42.49;102050.69;5073073;28;45495;-72
2023/08/21 10:51:04;;;;;;;;;3.67;3.67;;;;;29.74;42.29;102042.97;5067594;27;45600;-72
2023/08/21 10:53:31;;;;;;;;;3.33;3.33;;;;;29.77;42.37;102041.75;5066650;27;46398;-72
2023/08/21 10:56:00;;;;;;;;;4.00;3.67;;;;;29.79;42.58;102043.28;5063753;27;45426;-72
2023/08/21 10:58:25;;;;;;;;;5.67;4.67;;;;;29.83;42.86;102038.31;5074236;28;45504;-72
2023/08/21 11:00:58;;;;;;;;;3.00;3.00;;;;;29.87;42.58;102038.81;5073851;27;45566;-73
2023/08/21 11:03:23;;;;;;;;;6.00;4.67;;;;;29.90;43.04;102041.16;5070899;28;46229;-73
2023/08/21 11:06:02;;;;;;;;;4.67;3.00;;;;;29.92;42.72;102034.47;5061707;28;45603;-72
2023/08/21 11:08:28;;;;;;;;;2.67;2.67;;;;;29.95;42.76;102033.25;5068938;27;45595;-74
2023/08/21 11:10:53;;;;;;;;;3.00;3.00;;;;;29.98;42.85;102024.69;5073458;27;45423;-74
2023/08/21 11:13:19;;;;;;;;;5.33;4.00;;;;;30.02;42.96;102030.66;5061428;27;46184;-74
2023/08/21 11:15:45;;;;;;;;;2.33;2.33;;;;;30.04;42.78;102034.09;5072572;27;45593;-74
2023/08/21 11:18:11;;;;;;;;;3.00;3.00;;;;;30.06;42.64;102030.13;5070252;27;45479;-75
2023/08/21 11:20:36;;;;;;;;;3.00;3.00;;;;;30.07;42.51;102025.47;5073810;27;48890;-75
2023/08/21 11:23:07;;;;;;;;;4.00;4.00;;;;;30.09;42.50;102029.75;5071845;27;45663;-74
2023/08/21 11:25:34;;;;;;;;;4.67;4.00;;;;;30.11;42.66;102030.47;5060096;27;45470;-76
2023/08/21 11:28:02;;;;;;;;;4.00;4.00;;;;;30.13;42.53;102032.16;5057852;27;46479;-74
2023/08/21 11:30:27;;;;;;;;;6.67;4.33;;;;;30.13;41.73;102019.34;5067175;27;45455;-75
2023/08/21 11:33:06;;;;;;;;;5.00;2.67;;;;;30.15;41.65;102021.91;5066816;27;45646;-74
2023/08/21 11:35:31;;;;;;;;;5.00;3.00;;;;;30.15;41.56;102030.09;5062530;27;45458;-74
2023/08/21 11:37:56;;;;;;;;;3.00;2.33;;;;;30.15;41.68;102019.16;5066843;27;45462;-74
2023/08/21 11:40:22;;;;;;;;;5.33;2.33;;;;;30.15;41.90;102022.72;5063327;27;56759;-75
2023/08/21 11:42:51;;;;;;;;;5.00;5.00;;;;;30.15;41.56;102017.25;5062778;27;45403;-75
2023/08/21 11:45:20;;;;;;;;;2.67;2.67;;;;;30.15;41.59;102014.50;5063069;27;45773;-74
2023/08/21 11:47:46;;;;;;;;;5.00;3.33;;;;;30.15;41.30;102021.91;5066403;27;45475;-75
2023/08/21 11:50:13;;;;;;;;;3.00;3.00;;;;;30.13;41.44;102021.22;5064469;28;45590;-75
2023/08/21 11:52:38;;;;;;;;;3.00;2.67;;;;;30.11;41.78;102015.91;5065778;27;45554;-74
2023/08/21 11:55:09;;;;;;;;;3.00;3.00;;;;;30.09;41.83;102010.56;5062843;27;45742;-74
2023/08/21 11:57:34;;;;;;;;;3.33;3.33;;;;;30.10;41.81;102012.31;5063864;27;45889;-75
2023/08/21 11:59:59;;;;;;;;;5.67;4.33;;;;;30.09;41.60;102007.84;5072791;27;45500;-75
2023/08/21 12:02:27;;;;;;;;;2.00;2.00;;;;;30.10;41.61;102006.84;5070733;27;46009;-76
2023/08/21 12:05:06;;;;;;;;;4.33;2.00;;;;;30.12;41.46;102012.16;5067169;27;45699;-75
2023/08/21 12:07:35;;;;;;;;;2.33;2.33;;;;;30.15;41.60;102008.19;5054987;28;45455;-75
2023/08/21 12:10:01;;;;;;;;;2.00;2.00;;;;;30.16;41.55;102005.25;5066771;27;45669;-75
2023/08/21 12:12:26;;;;;;;;;4.00;4.00;;;;;30.15;41.63;102005.47;5069685;28;45607;-76
2023/08/21 12:14:51;;;;;;;;;4.67;4.67;;;;;30.17;41.68;102001.50;5065788;28;45419;-75
2023/08/21 12:17:17;;;;;;;;;3.00;3.00;;;;;30.18;41.74;101996.88;5069439;28;45990;-75
2023/08/21 12:19:43;;;;;;;;;5.33;4.00;;;;;30.18;41.52;102000.47;5066455;27;46523;-76
2023/08/21 12:22:09;;;;;;;;;3.33;3.33;;;;;30.18;41.71;101996.88;5069060;27;46238;-75
2023/08/21 12:24:34;;;;;;;;;4.00;3.33;;;;;30.19;41.59;101993.94;5072195;28;45563;-74
2023/08/21 12:26:59;;;;;;;;;3.00;3.00;;;;;30.21;41.54;101988.28;5068196;27;45467;-76
2023/08/21 12:29:25;;;;;;;;;4.67;3.00;;;;;30.23;41.52;101991.69;5066009;27;45409;-76
2023/08/21 12:31:50;;;;;;;;;4.33;3.00;;;;;30.22;41.53;101988.13;5064062;27;45567;-75
2023/08/21 12:34:15;;;;;;;;;1.67;1.67;;;;;30.22;41.46;101979.91;5072449;27;45513;-75
2023/08/21 12:36:40;;;;;;;;;2.33;2.33;;;;;30.22;41.55;101981.78;5070168;28;50515;-75
2023/08/21 12:39:07;;;;;;;;;3.00;2.67;;;;;30.20;41.66;101990.16;5067234;27;52855;-76
2023/08/21 12:41:33;;;;;;;;;2.33;2.33;;;;;30.21;41.70;101989.13;5067476;28;46152;-75
2023/08/21 12:43:59;;;;;;;;;7.00;3.00;;;;;30.22;41.66;101987.25;5066477;28;45718;-73
2023/08/21 12:46:27;;;;;;;;;4.00;4.00;;;;;30.23;41.72;101976.13;5069698;27;45457;-75
2023/08/21 12:48:52;;;;;;;;;2.00;2.00;;;;;30.26;41.83;101977.63;5063601;27;46187;-74
2023/08/21 12:51:17;;;;;;;;;4.00;4.00;;;;;30.28;41.83;101982.94;5067989;27;45990;-73
2023/08/21 12:53:43;;;;;;;;;3.67;3.67;;;;;30.29;41.25;101976.41;5058270;28;64357;-73
2023/08/21 12:56:08;;;;;;;;;3.00;3.00;;;;;30.30;41.84;101969.91;5071238;27;45748;-74
2023/08/21 12:58:33;;;;;;;;;3.00;3.00;;;;;30.31;41.28;101966.97;5061415;28;54806;-73
2023/08/21 13:00:59;;;;;;;;;3.33;2.33;;;;;30.34;41.87;101968.50;5070801;28;46736;-73
2023/08/21 13:03:24;;;;;;;;;4.67;3.00;;;;;30.36;41.71;101966.41;5066719;28;52251;-74
2023/08/21 13:05:49;;;;;;;;;5.00;3.00;;;;;30.37;41.77;101966.22;5069682;28;45661;-74
2023/08/21 13:08:15;;;;;;;;;6.00;4.33;;;;;30.40;41.53;101962.25;5062159;27;45442;-74
2023/08/21 13:10:40;;;;;;;;;3.00;3.00;;;;;30.44;41.82;101963.59;5069514;28;45393;-74
2023/08/21 13:13:05;;;;;;;;;4.67;3.00;;;;;30.45;41.91;101959.81;5069930;28;52475;-74
2023/08/21 13:15:31;;;;;;;;;4.67;3.00;;;;;30.48;41.66;101956.72;5070138;27;45535;-74
2023/08/21 13:17:57;;;;;;;;;3.33;3.00;;;;;30.51;41.58;101958.22;5070765;28;45698;-74
2023/08/21 13:20:22;;;;;;;;;4.00;3.00;;;;;30.53;41.59;101955.31;5063690;28;45633;-74
2023/08/21 13:22:51;;;;;;;;;3.00;3.00;;;;;30.56;41.63;101950.28;5071646;27;45426;-73
2023/08/21 13:25:18;;;;;;;;;2.33;2.33;;;;;30.58;41.44;101948.25;5065992;27;45622;-74
2023/08/21 13:27:43;;;;;;;;;3.00;3.00;;;;;30.59;41.71;101947.19;5069836;27;45912;-75
2023/08/21 13:30:09;;;;;;;;;3.33;3.33;;;;;30.60;41.88;101948.88;5066651;27;45516;-74
2023/08/21 13:32:34;;;;;;;;;4.00;2.33;;;;;30.60;41.67;101943.41;5069813;28;45825;-74
2023/08/21 13:35:00;;;;;;;;;5.00;3.00;;;;;30.60;41.95;101942.53;5069242;28;45280;-73
2023/08/21 13:37:26;;;;;;;;;3.00;3.00;;;;;30.60;41.87;101946.16;5071941;28;45821;-74
2023/08/21 13:39:52;;;;;;;;;3.67;3.00;;;;;30.60;41.96;101937.06;5069170;27;46080;-74
2023/08/21 13:42:17;;;;;;;;;2.33;2.33;;;;;30.59;41.55;101929.88;5065938;28;45481;-74
2023/08/21 13:44:42;;;;;;;;;3.00;3.00;;;;;30.58;41.81;101929.06;5070698;27;45492;-74
2023/08/21 13:47:07;;;;;;;;;4.00;4.00;;;;;30.56;41.65;101919.34;5059425;28;45327;-74
2023/08/21 13:49:33;;;;;;;;;3.00;3.00;;;;;30.55;41.66;101914.88;5067838;28;66502;-74
2023/08/21 13:51:58;;;;;;;;;4.00;3.67;;;;;30.56;41.65;101914.69;5062204;28;45293;-74
2023/08/21 13:54:23;;;;;;;;;3.00;3.00;;;;;30.56;41.74;101913.84;5069032;28;45797;-73
2023/08/21 13:56:49;;;;;;;;;2.67;2.00;;;;;30.55;41.82;101912.13;5062558;28;45576;-73
2023/08/21 13:59:14;;;;;;;;;4.33;4.33;;;;;30.52;41.51;101904.31;5070595;28;55569;-73
2023/08/21 14:01:39;;;;;;;;;2.33;2.33;;;;;30.52;41.83;101904.31;5067247;28;48150;-73
2023/08/21 14:04:04;;;;;;;;;4.00;4.00;;;;;30.49;42.01;101898.16;5075251;27;45786;-73
2023/08/21 14:06:30;;;;;;;;;3.00;3.00;;;;;30.49;41.67;101897.31;5073041;27;45429;-73
2023/08/21 14:08:55;;;;;;;;;3.00;3.00;;;;;30.48;41.80;101899.19;5075033;27;46363;-73
2023/08/21 14:11:20;;;;;;;;;5.67;4.00;;;;;30.47;41.82;101894.75;5074958;28;45736;-73
2023/08/21 14:13:46;;;;;;;;;2.00;2.00;;;;;30.46;41.80;101887.59;5075303;27;45517;-73
2023/08/21 14:16:11;;;;;;;;;3.33;2.33;;;;;30.45;42.08;101882.28;5071413;27;45585;-73
2023/08/21 14:18:36;;;;;;;;;3.33;3.33;;;;;30.41;42.27;101884.56;5062934;27;45390;-74
2023/08/21 14:21:02;;;;;;;;;4.00;4.00;;;;;30.31;42.35;101886.69;5068511;27;45517;-74
2023/08/21 14:23:27;;;;;;;;;3.00;3.00;;;;;30.21;42.83;101884.25;5071881;28;45633;-74
2023/08/21 14:25:53;;;;;;;;;5.00;3.00;;;;;30.11;43.23;101870.81;5070967;28;45492;-74
2023/08/21 14:28:18;;;;;;;;;4.00;3.00;;;;;30.04;43.67;101872.59;5074839;27;47708;-73
2023/08/21 14:30:44;;;;;;;;;2.00;2.00;;;;;29.95;43.72;101869.91;5073300;28;45546;-74
2023/08/21 14:33:10;;;;;;;;;2.00;2.00;;;;;29.89;44.05;101864.34;5073436;27;45398;-74
2023/08/21 14:35:36;;;;;;;;;2.67;2.00;;;;;29.81;44.06;101866.13;5074160;27;45486;-75
2023/08/21 14:38:02;;;;;;;;;2.67;2.67;;;;;29.76;44.32;101860.34;5074323;28;45538;-74
2023/08/21 14:40:27;;;;;;;;;2.00;2.00;;;;;29.70;44.55;101864.66;5072247;27;45561;-74
2023/08/21 14:42:52;;;;;;;;;5.33;4.00;;;;;29.67;44.64;101858.72;5063429;27;45565;-73
2023/08/21 14:45:18;;;;;;;;;3.00;1.67;;;;;29.62;45.02;101853.78;5071985;28;45549;-74
2023/08/21 14:47:43;;;;;;;;;2.33;2.00;;;;;29.59;44.93;101841.31;5068007;28;45898;-73
2023/08/21 14:50:09;;;;;;;;;3.00;2.67;;;;;29.60;44.98;101844.94;5064550;27;45503;-72
2023/08/21 14:52:34;;;;;;;;;4.67;2.00;;;;;29.59;45.13;101840.50;5072516;28;45636;-73
2023/08/21 14:54:59;;;;;;;;;2.00;2.00;;;;;29.59;45.20;101833.13;5071355;28;52232;-72
2023/08/21 14:57:25;;;;;;;;;2.33;2.33;;;;;29.57;45.59;101829.72;5072761;28;46987;-73
2023/08/21 14:59:50;;;;;;;;;3.00;3.00;;;;;29.56;45.28;101828.03;5074087;27;45759;-72
2023/08/21 15:02:15;;;;;;;;;4.67;2.00;;;;;29.55;45.89;101822.75;5059133;27;46408;-74
2023/08/21 15:04:41;;;;;;;;;3.00;2.67;;;;;29.58;45.79;101817.75;5065172;28;45724;-73
2023/08/21 15:07:06;;;;;;;;;1.00;1.00;;;;;29.61;45.59;101812.94;5073836;27;45869;-74
2023/08/21 15:09:31;;;;;;;;;1.00;1.00;;;;;29.61;45.48;101808.31;5074365;28;46363;-73
2023/08/21 15:11:57;;;;;;;;;1.00;1.00;;;;;29.63;45.56;101813.63;5071044;27;45886;-74
2023/08/21 15:14:22;;;;;;;;;3.33;3.00;;;;;29.61;45.62;101805.59;5073177;27;45460;-75
2023/08/21 15:16:47;;;;;;;;;2.33;2.33;;;;;29.60;45.66;101798.44;5070844;27;66525;-74
2023/08/21 15:19:13;;;;;;;;;2.00;2.00;;;;;29.59;45.61;101799.47;5060181;28;45435;-74
2023/08/21 15:21:38;;;;;;;;;2.00;2.00;;;;;29.58;45.68;101797.75;5068911;28;45446;-74
2023/08/21 15:24:04;;;;;;;;;2.00;2.00;;;;;29.57;45.78;101796.91;5071508;28;55927;-74
2023/08/21 15:26:29;;;;;;;;;3.00;3.00;;;;;29.58;45.71;101793.13;5072676;27;45403;-74
2023/08/21 15:28:54;;;;;;;;;2.00;2.00;;;;;29.61;45.96;101788.31;5073637;27;53814;-74
2023/08/21 15:31:20;;;;;;;;;2.00;2.00;;;;;29.62;45.58;101795.50;5073544;27;45447;-75
2023/08/21 15:33:47;;;;;;;;;6.00;3.00;;;;;29.64;46.12;101793.44;5072679;28;45516;-74
2023/08/21 15:36:12;;;;;;;;;2.00;2.00;;;;;29.66;46.00;101794.06;5064761;27;46199;-74
2023/08/21 15:38:38;;;;;;;;;4.00;3.00;;;;;29.67;45.65;101793.91;5066068;28;45362;-73
2023/08/21 15:41:03;;;;;;;;;2.00;2.00;;;;;29.67;45.75;101791.16;5067383;28;47173;-74
2023/08/21 15:43:28;;;;;;;;;3.00;3.00;;;;;29.69;45.45;101788.25;5074131;27;45363;-74
2023/08/21 15:45:54;;;;;;;;;2.00;2.00;;;;;29.70;45.80;101787.22;5068477;27;45511;-73
2023/08/21 15:48:19;;;;;;;;;2.00;2.00;;;;;29.70;45.77;101789.94;5071474;27;45567;-74
2023/08/21 15:50:44;;;;;;;;;2.00;2.00;;;;;29.72;45.87;101785.16;5071485;27;46567;-74
2023/08/21 15:53:09;;;;;;;;;3.00;3.00;;;;;29.72;45.53;101779.69;5072577;27;45546;-74
2023/08/21 15:55:35;;;;;;;;;3.00;3.00;;;;;29.73;45.93;101784.09;5071010;27;47139;-74
2023/08/21 15:58:00;;;;;;;;;2.00;2.00;;;;;29.73;45.75;101781.38;5063495;27;45664;-74
2023/08/21 16:00:25;;;;;;;;;2.00;2.00;;;;;29.72;46.12;101775.03;5064208;27;45392;-74
2023/08/21 16:02:51;;;;;;;;;3.00;1.33;;;;;29.72;45.85;101772.31;5061713;28;45589;-74
2023/08/21 16:05:16;;;;;;;;;3.33;3.33;;;;;29.71;45.84;101770.63;5065209;28;62119;-74
2023/08/21 16:07:41;;;;;;;;;3.00;3.00;;;;;29.70;46.03;101763.44;5068240;27;45578;-75
2023/08/21 16:10:07;;;;;;;;;4.00;2.00;;;;;29.70;45.67;101763.44;5073945;27;45550;-75
2023/08/21 16:12:33;;;;;;;;;3.33;3.33;;;;;29.68;45.48;101765.50;5063007;27;45506;-74
2023/08/21 16:14:58;;;;;;;;;2.00;2.00;;;;;29.66;45.50;101769.47;5066506;28;48326;-74
2023/08/21 16:17:24;;;;;;;;;2.00;2.00;;;;;29.64;46.05;101771.53;5071809;27;45496;-74
2023/08/21 16:19:49;;;;;;;;;2.00;2.00;;;;;29.62;46.02;101774.47;5062365;28;45847;-75
2023/08/21 16:22:14;;;;;;;;;7.00;2.00;;;;;29.61;46.23;101769.16;5072233;27;45491;-73
2023/08/21 16:24:40;;;;;;;;;2.00;2.00;;;;;29.61;46.16;101763.69;5074014;27;47240;-73
2023/08/21 16:27:05;;;;;;;;;2.00;2.00;;;;;29.62;46.00;101755.31;5072358;28;45519;-75
2023/08/21 16:29:32;;;;;;;;;4.00;2.00;;;;;29.64;46.11;101756.00;5059813;27;52940;-75
2023/08/21 16:31:57;;;;;;;;;2.00;2.00;;;;;29.64;46.14;101758.72;5072736;28;45663;-74
2023/08/21 16:34:22;;;;;;;;;2.00;2.00;;;;;29.64;45.76;101752.41;5069806;28;45335;-74
2023/08/21 16:36:48;;;;;;;;;3.00;3.00;;;;;29.64;46.05;101750.53;5067636;27;45430;-75
2023/08/21 16:39:13;;;;;;;;;2.67;2.67;;;;;29.66;45.76;101751.16;5066601;28;45737;-75
2023/08/21 16:41:38;;;;;;;;;1.67;1.67;;;;;29.68;46.00;101749.09;5069501;28;45535;-73
2023/08/21 16:44:04;;;;;;;;;2.67;2.67;;;;;29.67;45.92;101752.03;5069806;27;47132;-75
2023/08/21 16:46:29;;;;;;;;;2.00;2.00;;;;;29.64;45.96;101739.59;5065585;28;45466;-75
2023/08/21 16:48:54;;;;;;;;;3.00;3.00;;;;;29.63;45.67;101747.97;5066056;28;45410;-75
2023/08/21 16:51:20;;;;;;;;;2.00;2.00;;;;;29.61;45.86;101737.22;5060987;27;45985;-75
2023/08/21 16:53:45;;;;;;;;;2.33;2.00;;;;;29.62;46.10;101749.84;5071156;27;51740;-75
2023/08/21 16:56:10;;;;;;;;;1.33;1.33;;;;;29.62;46.08;101747.09;5068539;28;46475;-75
2023/08/21 16:58:36;;;;;;;;;2.00;2.00;;;;;29.63;45.71;101747.97;5072261;27;45485;-74